Time;durP1;ratioP1;P1;durP2;ratioP2;P2;SDS_P1;SDS_P2;PMS_P1;PMS_P2;Temp;Humidity;BMP_temperature;BMP_pressure;BME280_temperature;BME280_humidity;BME280_pressure;Samples;Min_cycle;Max_cycle;Signal;HPM_P1;HPM_P2
2023/09/12 00:00:46;;;;;;;17.10;13.20;;;;;;;16.85;84.03;100243.53;108875;278;39251;-75
2023/09/12 00:03:38;;;;;;;14.70;12.30;;;;;;;16.85;84.39;100241.59;108952;278;38448;-76
2023/09/12 00:06:12;;;;;;;15.90;12.60;;;;;;;16.83;83.96;100241.93;108915;278;38209;-73
2023/09/12 00:08:46;;;;;;;14.60;12.80;;;;;;;16.76;83.70;100239.52;108926;278;38418;-75
2023/09/12 00:11:20;;;;;;;14.90;12.80;;;;;;;16.74;84.05;100236.50;108908;278;39322;-75
2023/09/12 00:13:54;;;;;;;16.00;12.60;;;;;;;16.72;84.20;100235.58;108918;278;39007;-76
2023/09/12 00:16:28;;;;;;;15.90;13.50;;;;;;;16.68;84.15;100229.82;108904;278;38458;-76
2023/09/12 00:19:02;;;;;;;17.30;12.50;;;;;;;16.64;84.20;100230.81;109003;278;38438;-76
2023/09/12 00:21:36;;;;;;;15.30;12.60;;;;;;;16.59;84.25;100232.55;108905;278;38163;-74
2023/09/12 00:24:11;;;;;;;14.20;12.20;;;;;;;16.58;84.41;100233.15;108900;278;38636;-75
2023/09/12 00:26:45;;;;;;;15.80;13.30;;;;;;;16.58;84.85;100236.47;108896;278;38238;-73
2023/09/12 00:29:19;;;;;;;16.30;13.20;;;;;;;16.56;85.00;100234.15;108876;278;38570;-81
2023/09/12 00:31:53;;;;;;;17.90;12.90;;;;;;;16.52;85.08;100233.87;108897;278;39750;-77
2023/09/12 00:34:27;;;;;;;14.50;13.00;;;;;;;16.48;85.03;100232.88;108934;278;38164;-75
2023/09/12 00:37:02;;;;;;;17.30;12.90;;;;;;;16.47;85.24;100233.33;108872;278;38621;-75
2023/09/12 00:39:36;;;;;;;16.00;12.40;;;;;;;16.48;85.30;100234.67;108259;278;897131;-77
2023/09/12 00:42:14;;;;;;;19.90;12.20;;;;;;;16.48;85.69;100232.88;108910;278;39303;-73
2023/09/12 00:44:52;;;;;;;14.80;13.30;;;;;;;16.50;85.68;100232.61;108956;278;38709;-73
2023/09/12 00:47:26;;;;;;;14.20;12.70;;;;;;;16.49;85.50;100237.74;108977;278;38291;-75
2023/09/12 00:50:00;;;;;;;15.50;13.70;;;;;;;16.49;85.52;100241.95;108983;278;38295;-74
2023/09/12 00:52:34;;;;;;;16.80;14.00;;;;;;;16.50;85.78;100240.66;108953;278;38942;-76
2023/09/12 00:55:10;;;;;;;16.40;14.30;;;;;;;16.51;85.51;100241.37;108894;278;39192;-76
2023/09/12 00:57:45;;;;;;;15.80;14.00;;;;;;;16.42;85.38;100241.92;108940;278;38465;-75
2023/09/12 01:00:20;;;;;;;17.00;15.00;;;;;;;16.37;85.53;100246.09;108916;278;38170;-75
2023/09/12 01:02:54;;;;;;;18.00;14.60;;;;;;;16.36;85.61;100241.29;108950;278;38429;-74
2023/09/12 01:05:28;;;;;;;18.60;14.80;;;;;;;16.34;85.64;100239.45;108908;278;39898;-76
2023/09/12 01:08:02;;;;;;;16.40;14.60;;;;;;;16.35;85.90;100240.64;108910;278;39466;-75
2023/09/12 01:10:36;;;;;;;17.60;15.00;;;;;;;16.36;86.19;100238.30;108922;278;38155;-74
2023/09/12 01:13:10;;;;;;;17.00;14.40;;;;;;;16.35;85.90;100238.30;108871;278;38315;-75
2023/09/12 01:15:45;;;;;;;17.90;15.60;;;;;;;16.36;85.96;100238.80;108803;278;174066;-74
2023/09/12 01:18:19;;;;;;;16.30;14.60;;;;;;;16.36;85.90;100243.23;108851;278;38142;-73
2023/09/12 01:21:11;;;;;;;17.30;15.30;;;;;;;16.36;85.95;100239.13;108898;278;38280;-75
2023/09/12 01:23:53;;;;;;;17.30;15.50;;;;;;;16.34;85.66;100238.05;108894;278;39766;-74
2023/09/12 01:26:41;;;;;;;16.60;14.90;;;;;;;16.31;85.61;100239.11;108927;278;40371;-75
2023/09/12 01:29:15;;;;;;;16.50;14.30;;;;;;;16.28;85.72;100240.86;108986;278;38148;-75
2023/09/12 01:31:49;;;;;;;15.80;14.20;;;;;;;16.25;85.61;100239.11;108952;278;38451;-75
2023/09/12 01:34:23;;;;;;;16.80;14.80;;;;;;;16.22;85.54;100239.64;108949;278;38473;-76
2023/09/12 01:36:57;;;;;;;17.10;15.10;;;;;;;16.19;85.67;100236.50;108963;278;38749;-77
2023/09/12 01:39:31;;;;;;;17.70;15.00;;;;;;;16.18;85.62;100240.66;108898;278;39774;-83
2023/09/12 01:42:05;;;;;;;16.60;14.80;;;;;;;16.18;85.81;100242.23;108869;278;175027;-76
2023/09/12 01:44:40;;;;;;;17.90;15.00;;;;;;;16.16;85.47;100239.57;108932;278;38578;-74
2023/09/12 01:47:15;;;;;;;17.30;14.70;;;;;;;16.13;85.71;100238.66;108925;278;38174;-74
2023/09/12 01:49:52;;;;;;;16.10;14.40;;;;;;;16.11;85.88;100241.59;108940;278;38630;-73
2023/09/12 01:52:27;;;;;;;16.20;13.60;;;;;;;16.10;86.14;100241.19;108927;278;38503;-75
2023/09/12 01:55:01;;;;;;;15.70;14.10;;;;;;;16.09;86.22;100242.27;108886;278;39330;-75
2023/09/12 01:57:35;;;;;;;19.00;15.70;;;;;;;16.09;86.66;100241.06;108906;278;38751;-75
2023/09/12 02:00:12;;;;;;;15.90;13.80;;;;;;;16.08;86.52;100240.60;108858;278;39657;-75
2023/09/12 02:02:46;;;;;;;18.10;15.30;;;;;;;16.07;86.18;100243.66;108926;278;38299;-81
2023/09/12 02:05:21;;;;;;;16.60;14.20;;;;;;;16.06;86.47;100242.12;108893;278;38598;-76
2023/09/12 02:07:55;;;;;;;16.90;14.20;;;;;;;16.04;86.49;100244.02;108964;278;38231;-76
2023/09/12 02:10:29;;;;;;;17.30;14.20;;;;;;;16.02;86.28;100239.02;108940;278;38414;-76
2023/09/12 02:13:03;;;;;;;17.50;14.60;;;;;;;15.98;86.42;100244.34;108898;278;39188;-76
2023/09/12 02:15:37;;;;;;;17.60;15.80;;;;;;;15.97;86.44;100243.86;108877;278;38931;-73
2023/09/12 02:18:11;;;;;;;16.40;14.60;;;;;;;15.92;86.66;100237.88;108986;278;39348;-74
2023/09/12 02:20:46;;;;;;;17.20;14.50;;;;;;;15.88;86.85;100233.89;108891;278;38159;-74
2023/09/12 02:23:20;;;;;;;18.60;14.60;;;;;;;15.85;86.83;100238.64;108992;278;38423;-75
2023/09/12 02:25:54;;;;;;;19.40;15.10;;;;;;;15.86;87.28;100236.83;108900;278;40424;-74
2023/09/12 02:28:28;;;;;;;15.80;13.90;;;;;;;15.88;87.65;100234.62;108936;278;38861;-76
2023/09/12 02:31:02;;;;;;;16.60;14.50;;;;;;;15.88;87.56;100233.23;108289;278;898846;-74
2023/09/12 02:33:36;;;;;;;20.40;14.90;;;;;;;15.88;87.63;100234.59;108862;278;39551;-75
2023/09/12 02:36:11;;;;;;;18.70;14.90;;;;;;;15.89;87.60;100237.33;108902;278;38913;-75
2023/09/12 02:38:45;;;;;;;21.00;16.20;;;;;;;15.91;87.93;100238.84;108899;278;39393;-76
2023/09/12 02:41:19;;;;;;;18.40;16.50;;;;;;;15.90;87.77;100234.83;108882;278;38371;-76
2023/09/12 02:43:53;;;;;;;17.00;14.90;;;;;;;15.86;87.65;100235.59;108919;278;39427;-76
2023/09/12 02:46:27;;;;;;;16.90;15.10;;;;;;;15.86;87.72;100236.17;108873;278;38935;-76
2023/09/12 02:49:01;;;;;;;20.40;15.20;;;;;;;15.84;87.65;100234.66;108876;278;38451;-76
2023/09/12 02:51:37;;;;;;;17.80;15.00;;;;;;;15.83;87.82;100234.05;108917;278;38242;-76
2023/09/12 02:54:12;;;;;;;17.90;15.20;;;;;;;15.81;87.84;100235.73;108937;278;38241;-74
2023/09/12 02:56:46;;;;;;;16.80;15.10;;;;;;;15.79;87.62;100237.66;108890;278;38262;-75
2023/09/12 02:59:19;;;;;;;22.60;15.40;;;;;;;15.74;87.63;100233.86;108940;278;38713;-75
2023/09/12 03:01:54;;;;;;;20.50;15.60;;;;;;;15.71;87.71;100234.25;108907;278;40243;-72
2023/09/12 03:04:30;;;;;;;18.30;16.20;;;;;;;15.69;87.75;100235.25;108961;278;39339;-75
2023/09/12 03:07:06;;;;;;;20.50;16.50;;;;;;;15.67;88.20;100236.93;108950;278;38898;-75
2023/09/12 03:09:40;;;;;;;19.30;15.80;;;;;;;15.67;88.51;100235.52;108922;278;38746;-73
2023/09/12 03:12:14;;;;;;;19.40;16.50;;;;;;;15.66;88.30;100233.33;108953;278;39057;-74
2023/09/12 03:14:48;;;;;;;21.40;17.50;;;;;;;15.63;88.16;100231.58;108915;278;38830;-77
2023/09/12 03:17:22;;;;;;;21.20;17.10;;;;;;;15.65;88.65;100228.84;108911;278;38181;-75
2023/09/12 03:19:56;;;;;;;23.50;18.00;;;;;;;15.66;88.99;100234.52;108894;278;38691;-74
2023/09/12 03:22:32;;;;;;;19.50;17.30;;;;;;;15.68;88.79;100238.14;108898;278;38615;-73
2023/09/12 03:25:07;;;;;;;21.50;17.90;;;;;;;15.65;88.46;100233.91;108903;278;38224;-73
2023/09/12 03:27:41;;;;;;;21.10;17.50;;;;;;;15.60;88.47;100234.88;108923;278;38326;-77
2023/09/12 03:30:16;;;;;;;21.00;17.00;;;;;;;15.55;88.43;100234.84;108771;278;174729;-75
2023/09/12 03:32:51;;;;;;;20.90;17.20;;;;;;;15.52;88.60;100234.52;108928;278;39737;-74
2023/09/12 03:35:24;;;;;;;21.10;17.30;;;;;;;15.51;88.47;100237.75;108917;278;38327;-75
2023/09/12 03:37:58;;;;;;;21.50;17.70;;;;;;;15.50;88.97;100240.39;108930;278;39377;-74
2023/09/12 03:40:34;;;;;;;25.10;18.70;;;;;;;15.52;89.20;100246.11;108944;278;38297;-74
2023/09/12 03:43:08;;;;;;;19.40;17.20;;;;;;;15.52;89.39;100246.09;108910;278;39377;-74
2023/09/12 03:45:42;;;;;;;22.40;17.80;;;;;;;15.53;89.26;100244.46;108967;278;39403;-72
2023/09/12 03:48:16;;;;;;;25.20;18.50;;;;;;;15.54;89.14;100247.59;108992;278;38458;-79
2023/09/12 03:50:50;;;;;;;20.80;17.40;;;;;;;15.51;88.92;100248.61;108962;278;38975;-74
2023/09/12 03:53:26;;;;;;;20.80;17.00;;;;;;;15.49;88.69;100252.05;108987;278;38488;-75
2023/09/12 03:56:00;;;;;;;20.30;16.90;;;;;;;15.48;88.88;100252.14;108934;278;38966;-75
2023/09/12 03:58:35;;;;;;;20.70;16.90;;;;;;;15.45;88.85;100251.09;108903;278;41419;-74
2023/09/12 04:01:08;;;;;;;19.80;16.40;;;;;;;15.43;88.95;100248.22;108976;278;38217;-74
2023/09/12 04:03:43;;;;;;;20.80;16.60;;;;;;;15.44;89.06;100249.92;108937;278;39820;-73
2023/09/12 04:06:17;;;;;;;19.90;16.30;;;;;;;15.44;89.04;100250.94;108869;278;38742;-74
2023/09/12 04:08:51;;;;;;;20.20;16.80;;;;;;;15.44;89.12;100254.48;108934;278;38470;-75
2023/09/12 04:11:25;;;;;;;19.90;16.70;;;;;;;15.43;88.62;100254.22;108949;278;40858;-76
2023/09/12 04:13:59;;;;;;;23.80;16.80;;;;;;;15.39;88.75;100250.93;108927;278;38897;-73
2023/09/12 04:16:33;;;;;;;19.50;16.00;;;;;;;15.39;88.96;100251.80;108912;278;38819;-73
2023/09/12 04:19:07;;;;;;;18.90;16.30;;;;;;;15.39;89.11;100253.73;108927;278;39409;-75
2023/09/12 04:21:41;;;;;;;21.30;16.60;;;;;;;15.39;89.26;100245.11;108919;278;38463;-76
2023/09/12 04:24:17;;;;;;;17.80;15.60;;;;;;;15.41;89.37;100248.87;108952;278;38284;-74
2023/09/12 04:26:51;;;;;;;21.40;15.50;;;;;;;15.44;89.36;100250.48;108909;278;39399;-75
2023/09/12 04:29:27;;;;;;;17.80;15.90;;;;;;;15.47;89.72;100251.46;109004;278;38220;-75
2023/09/12 04:32:01;;;;;;;20.20;17.90;;;;;;;15.52;89.31;100251.05;108961;278;39806;-74
2023/09/12 04:34:35;;;;;;;20.10;17.20;;;;;;;15.53;89.42;100252.07;108975;278;39356;-75
2023/09/12 04:37:13;;;;;;;18.50;16.50;;;;;;;15.54;89.58;100252.29;108954;278;39762;-74
2023/09/12 04:39:47;;;;;;;18.50;16.50;;;;;;;15.57;89.65;100255.30;108885;278;38734;-75
2023/09/12 04:42:21;;;;;;;19.20;15.90;;;;;;;15.60;90.01;100255.45;108880;278;38226;-80
2023/09/12 04:44:55;;;;;;;18.10;16.10;;;;;;;15.63;90.01;100257.05;108919;278;39628;-75
2023/09/12 04:47:30;;;;;;;20.20;16.30;;;;;;;15.67;89.95;100256.34;108872;278;38268;-73
2023/09/12 04:50:04;;;;;;;19.80;15.80;;;;;;;15.71;90.01;100254.62;108931;278;38171;-73
2023/09/12 04:52:39;;;;;;;18.60;15.30;;;;;;;15.77;90.22;100254.29;108909;278;38854;-75
2023/09/12 04:55:13;;;;;;;18.50;16.50;;;;;;;15.82;90.27;100256.10;108890;278;38852;-73
2023/09/12 04:57:53;;;;;;;21.20;17.30;;;;;;;15.88;90.25;100256.09;108878;278;40645;-73
2023/09/12 05:00:33;;;;;;;21.30;18.00;;;;;;;15.92;90.62;100261.62;108889;278;40039;-75
2023/09/12 05:03:09;;;;;;;18.00;16.10;;;;;;;15.98;90.88;100260.39;108917;278;38312;-75
2023/09/12 05:05:46;;;;;;;18.60;16.20;;;;;;;16.04;91.11;100257.21;108913;278;38308;-75
2023/09/12 05:08:20;;;;;;;18.20;16.20;;;;;;;16.09;91.14;100258.45;108910;278;38382;-76
2023/09/12 05:10:55;;;;;;;18.30;16.20;;;;;;;16.14;91.19;100260.96;108877;278;38391;-75
2023/09/12 05:13:30;;;;;;;17.10;15.30;;;;;;;16.21;91.50;100258.73;108948;278;38421;-79
2023/09/12 05:16:04;;;;;;;20.60;16.30;;;;;;;16.29;91.24;100262.86;108945;278;38264;-73
2023/09/12 05:18:38;;;;;;;18.00;16.20;;;;;;;16.37;91.68;100260.91;108963;278;38243;-76
2023/09/12 05:21:13;;;;;;;21.30;16.70;;;;;;;16.44;91.88;100263.06;108969;278;38389;-74
2023/09/12 07:49:16;;;;;;;15.60;13.90;;;;;;;24.16;68.52;100291.40;108904;278;38308;-72
2023/09/12 07:51:50;;;;;;;16.40;14.10;;;;;;;24.25;68.35;100291.30;108902;278;38484;-73
2023/09/12 07:54:24;;;;;;;14.60;13.20;;;;;;;24.40;68.47;100292.55;108836;278;39481;-70
2023/09/12 07:56:58;;;;;;;17.20;12.80;;;;;;;24.59;67.06;100291.20;108910;278;38795;-71
2023/09/12 07:59:32;;;;;;;16.30;11.80;;;;;;;25.00;68.24;100286.08;108808;278;38269;-73
2023/09/12 08:02:06;;;;;;;14.40;12.40;;;;;;;25.78;66.73;100286.98;108901;278;38933;-71
2023/09/12 08:04:40;;;;;;;14.40;12.00;;;;;;;26.73;65.85;100284.77;108914;278;39676;-71
2023/09/12 08:07:15;;;;;;;16.70;11.10;;;;;;;27.74;62.16;100280.67;108906;278;38561;-72
2023/09/12 08:09:58;;;;;;;11.40;10.30;;;;;;;28.50;57.78;100278.96;108892;278;39015;-72
2023/09/12 08:12:32;;;;;;;13.60;10.00;;;;;;;29.39;55.47;100278.96;108872;278;38131;-71
2023/09/12 08:15:09;;;;;;;11.60;9.90;;;;;;;30.14;52.99;100280.44;108907;278;38181;-73
2023/09/12 08:17:43;;;;;;;15.10;10.50;;;;;;;30.92;52.70;100281.83;108901;278;39518;-73
2023/09/12 08:20:17;;;;;;;14.00;9.70;;;;;;;31.70;49.24;100283.31;108916;278;39213;-72
2023/09/12 08:22:51;;;;;;;11.40;9.70;;;;;;;32.14;45.83;100280.08;108910;278;38739;-74
2023/09/12 08:25:25;;;;;;;10.60;9.20;;;;;;;32.58;44.84;100282.88;108902;278;38246;-74
2023/09/12 08:27:59;;;;;;;10.90;9.40;;;;;;;32.94;42.94;100287.27;108939;278;39071;-74
2023/09/12 08:30:36;;;;;;;11.10;9.90;;;;;;;33.19;42.61;100284.42;108930;278;38146;-72
2023/09/12 08:33:10;;;;;;;14.60;10.30;;;;;;;33.30;42.61;100280.95;108928;278;38503;-72
2023/09/12 08:35:44;;;;;;;11.00;9.60;;;;;;;33.35;41.80;100285.34;108836;278;174119;-72
2023/09/12 08:38:18;;;;;;;12.00;9.30;;;;;;;33.19;40.68;100284.75;108947;278;38344;-73
2023/09/12 08:40:58;;;;;;;13.60;10.20;;;;;;;33.16;41.06;100283.84;108771;278;174138;-72
2023/09/12 08:43:32;;;;;;;12.90;9.80;;;;;;;33.28;40.41;100286.42;108963;278;38457;-73
2023/09/12 08:46:06;;;;;;;11.00;9.50;;;;;;;33.41;39.63;100285.06;108910;278;39400;-73
2023/09/12 08:48:40;;;;;;;11.10;10.00;;;;;;;33.73;39.79;100283.15;108928;278;39525;-71
2023/09/12 08:51:14;;;;;;;10.70;9.70;;;;;;;34.20;39.73;100284.77;108916;278;38424;-72
2023/09/12 08:53:48;;;;;;;11.40;10.00;;;;;;;34.61;38.79;100287.36;108941;278;39059;-73
2023/09/12 08:56:22;;;;;;;11.00;9.90;;;;;;;34.85;37.65;100285.70;108899;278;38289;-74
2023/09/12 08:58:56;;;;;;;13.40;10.30;;;;;;;34.98;37.05;100282.30;108951;278;38198;-74
2023/09/12 09:01:30;;;;;;;10.50;9.40;;;;;;;35.12;37.43;100284.67;108914;278;38956;-74
2023/09/12 09:04:05;;;;;;;14.20;10.30;;;;;;;35.17;36.71;100282.71;108936;278;38143;-75
2023/09/12 09:06:39;;;;;;;10.00;9.10;;;;;;;35.04;36.35;100280.71;108974;278;39225;-72
2023/09/12 09:09:13;;;;;;;10.60;9.60;;;;;;;34.92;36.63;100280.83;108886;278;38777;-74
2023/09/12 09:11:48;;;;;;;10.00;8.80;;;;;;;34.76;36.26;100276.69;108925;278;39711;-74
2023/09/12 09:14:22;;;;;;;9.70;8.70;;;;;;;34.56;36.19;100276.52;108924;278;38173;-72
2023/09/12 09:16:56;;;;;;;12.60;8.90;;;;;;;34.40;36.45;100276.04;108912;278;38392;-73
2023/09/12 09:19:44;;;;;;;10.60;9.30;;;;;;;34.23;35.98;100273.84;108902;278;38293;-71
2023/09/12 09:22:18;;;;;;;9.70;8.70;;;;;;;34.26;36.61;100273.45;108926;278;38453;-72
2023/09/12 09:24:52;;;;;;;10.50;8.40;;;;;;;34.44;36.77;100270.04;108776;278;173701;-74
2023/09/12 09:27:38;;;;;;;9.70;8.60;;;;;;;34.79;36.14;100273.70;108914;278;39652;-76
2023/09/12 09:30:14;;;;;;;11.60;8.80;;;;;;;35.09;35.21;100268.16;108907;278;38891;-74
2023/09/12 09:32:48;;;;;;;10.20;9.20;;;;;;;35.36;35.38;100272.20;108849;278;174016;-74
2023/09/12 09:35:23;;;;;;;12.10;9.20;;;;;;;35.62;33.96;100272.30;108938;278;39366;-75
2023/09/12 09:37:57;;;;;;;10.40;8.90;;;;;;;35.76;34.12;100268.41;108899;278;38227;-72
2023/09/12 09:40:31;;;;;;;11.70;9.10;;;;;;;35.87;34.23;100267.79;108889;278;39630;-73
2023/09/12 09:43:05;;;;;;;9.30;8.40;;;;;;;35.83;33.68;100267.54;108862;278;38450;-73
2023/09/12 09:45:47;;;;;;;9.20;8.30;;;;;;;35.70;33.53;100266.79;108883;278;39125;-72
2023/09/12 09:48:24;;;;;;;9.40;8.50;;;;;;;35.43;33.57;100269.69;108956;278;38766;-71
2023/09/12 09:51:03;;;;;;;9.60;8.00;;;;;;;35.07;33.73;100267.25;109022;278;39411;-71
2023/09/12 09:53:38;;;;;;;9.80;8.80;;;;;;;34.71;34.38;100267.31;108999;278;39368;-75
2023/09/12 09:56:16;;;;;;;10.90;8.80;;;;;;;34.33;34.38;100268.99;108930;278;38273;-75
2023/09/12 09:58:54;;;;;;;9.60;8.40;;;;;;;33.91;34.54;100266.26;108899;278;38528;-73
2023/09/12 10:01:31;;;;;;;9.60;7.70;;;;;;;33.50;34.45;100262.92;108880;278;38256;-74
2023/09/12 10:04:05;;;;;;;10.40;8.60;;;;;;;33.15;34.33;100260.93;108923;278;38781;-74
2023/09/12 10:06:40;;;;;;;9.50;8.60;;;;;;;32.84;34.76;100260.77;108873;278;39163;-74
2023/09/12 10:09:15;;;;;;;9.50;8.30;;;;;;;32.57;35.82;100259.83;108905;278;38150;-73
2023/09/12 10:11:49;;;;;;;9.90;8.90;;;;;;;32.38;36.63;100259.46;108909;278;38954;-73
2023/09/12 10:14:24;;;;;;;9.20;8.30;;;;;;;32.11;36.64;100256.92;108879;278;38487;-74
2023/09/12 10:17:01;;;;;;;8.80;8.00;;;;;;;31.86;37.53;100251.38;108899;278;38396;-75
2023/09/12 10:19:39;;;;;;;10.90;8.50;;;;;;;31.75;37.79;100252.13;108875;278;38214;-74
2023/09/12 10:22:16;;;;;;;12.60;9.10;;;;;;;31.56;37.02;100246.59;108902;278;39318;-72
2023/09/12 10:24:51;;;;;;;10.50;9.40;;;;;;;31.40;37.65;100250.93;108910;278;38633;-73
2023/09/12 10:27:25;;;;;;;11.20;9.00;;;;;;;31.41;38.02;100251.72;108901;278;39300;-71
2023/09/12 10:29:59;;;;;;;9.50;8.70;;;;;;;31.46;37.87;100250.13;108958;278;38788;-73
2023/09/12 10:32:34;;;;;;;10.10;9.10;;;;;;;31.55;37.91;100247.24;108903;278;38701;-73
2023/09/12 10:35:09;;;;;;;13.10;9.50;;;;;;;31.62;37.07;100250.80;108958;278;38462;-74
2023/09/12 10:37:45;;;;;;;9.40;8.60;;;;;;;31.64;36.30;100250.84;108836;278;188466;-73
2023/09/12 10:40:20;;;;;;;9.80;8.90;;;;;;;31.51;36.33;100246.42;108983;278;38305;-73
2023/09/12 10:42:54;;;;;;;9.60;8.70;;;;;;;31.33;36.50;100245.35;108950;278;38315;-75
2023/09/12 10:45:28;;;;;;;10.00;9.10;;;;;;;31.31;37.10;100244.91;108955;278;38151;-73
2023/09/12 10:48:02;;;;;;;9.60;8.80;;;;;;;31.38;36.91;100247.48;109005;278;38458;-74
2023/09/12 10:50:36;;;;;;;13.50;9.10;;;;;;;31.37;36.21;100241.49;108934;278;38592;-72
2023/09/12 10:53:16;;;;;;;10.70;9.00;;;;;;;31.37;36.50;100239.24;108961;278;38678;-71
2023/09/12 10:56:15;;;;;;;9.70;8.90;;;;;;;31.33;35.19;100239.98;108901;278;38162;-71
2023/09/12 10:59:18;;;;;;;10.50;9.20;;;;;;;31.15;35.94;100234.14;108927;278;38714;-73
2023/09/12 11:01:52;;;;;;;9.70;8.80;;;;;;;31.07;36.59;100237.12;108890;278;38331;-73
2023/09/12 11:04:37;;;;;;;10.50;9.20;;;;;;;31.04;36.96;100241.29;108838;278;171774;-71
2023/09/12 11:07:46;;;;;;;10.00;9.10;;;;;;;30.94;37.02;100238.04;108918;278;39326;-71
2023/09/12 11:10:27;;;;;;;10.90;9.20;;;;;;;30.84;37.33;100237.83;108796;278;174314;-73
2023/09/12 11:13:01;;;;;;;11.70;9.30;;;;;;;30.81;36.81;100234.55;108906;278;39635;-71
2023/09/12 11:15:39;;;;;;;10.10;9.10;;;;;;;30.76;36.50;100232.14;108926;278;39319;-74
2023/09/12 11:18:14;;;;;;;10.70;9.60;;;;;;;30.77;36.85;100233.88;108928;278;38145;-72
2023/09/12 11:21:03;;;;;;;10.00;8.90;;;;;;;30.76;36.50;100231.52;108868;278;39841;-73
2023/09/12 11:23:39;;;;;;;11.70;9.00;;;;;;;30.69;35.87;100229.18;108963;278;38573;-72
2023/09/12 11:26:14;;;;;;;10.10;9.10;;;;;;;30.55;35.03;100227.03;108961;278;38372;-72
2023/09/12 11:28:48;;;;;;;12.90;9.80;;;;;;;30.49;35.86;100228.71;108953;278;38771;-74
2023/09/12 11:31:59;;;;;;;9.80;9.00;;;;;;;30.49;35.74;100226.19;108949;278;38171;-73
2023/09/12 11:34:40;;;;;;;10.30;9.30;;;;;;;30.51;36.24;100226.70;108938;278;38267;-72
2023/09/12 11:37:15;;;;;;;10.30;9.20;;;;;;;30.55;36.70;100228.46;108887;278;174356;-72
2023/09/12 11:39:50;;;;;;;10.10;9.10;;;;;;;30.63;36.74;100227.29;108901;278;40006;-71
2023/09/12 11:42:28;;;;;;;11.30;9.50;;;;;;;30.69;36.70;100229.64;108927;271;38455;-76
2023/09/12 11:45:11;;;;;;;9.40;8.60;;;;;;;30.74;36.61;100224.38;109000;278;38275;-77
2023/09/12 11:47:47;;;;;;;9.80;9.00;;;;;;;30.78;36.42;100221.10;109056;278;38231;-78
2023/09/12 11:50:39;;;;;;;10.10;9.20;;;;;;;30.83;35.74;100221.60;109026;278;38226;-77
2023/09/12 11:53:15;;;;;;;11.40;9.80;;;;;;;30.82;35.58;100224.02;108975;278;38323;-79
2023/09/12 11:55:54;;;;;;;10.60;9.40;;;;;;;30.81;35.69;100224.00;108859;278;171643;-77
2023/09/12 11:58:30;;;;;;;9.90;8.90;;;;;;;30.75;35.34;100219.49;108929;278;38483;-77
2023/09/12 12:01:04;;;;;;;10.30;9.30;;;;;;;30.70;35.49;100219.60;108936;278;38955;-78
2023/09/12 12:03:41;;;;;;;10.50;9.50;;;;;;;30.68;35.78;100219.85;108940;278;38155;-75
2023/09/12 12:06:16;;;;;;;9.80;9.00;;;;;;;30.70;36.28;100216.73;108910;278;38900;-76
2023/09/12 12:08:54;;;;;;;10.60;9.40;;;;;;;30.74;36.51;100216.21;108878;279;38895;-84
2023/09/12 12:11:31;;;;;;;10.50;9.50;;;;;;;30.76;36.38;100214.15;108908;278;39506;-78
2023/09/12 12:14:19;;;;;;;10.30;8.90;;;;;;;30.74;35.66;100214.25;108870;278;38360;-79
2023/09/12 12:17:03;;;;;;;10.90;9.40;;;;;;;30.67;35.49;100214.20;108987;278;38301;-79
2023/09/12 12:19:37;;;;;;;10.60;9.50;;;;;;;30.64;35.64;100212.62;108885;278;39160;-77
2023/09/12 12:22:13;;;;;;;10.80;9.50;;;;;;;30.61;35.58;100212.47;108904;278;38569;-77
2023/09/12 12:24:52;;;;;;;11.20;9.50;;;;;;;30.56;35.49;100212.58;108987;278;39316;-77
2023/09/12 12:27:29;;;;;;;11.00;9.80;;;;;;;30.52;35.47;100212.90;108930;278;39477;-79
2023/09/12 12:30:07;;;;;;;11.00;9.90;;;;;;;30.48;35.69;100209.73;108980;278;38691;-80
2023/09/12 12:32:49;;;;;;;10.60;9.50;;;;;;;30.46;35.87;100213.60;109052;278;38774;-75
2023/09/12 12:35:26;;;;;;;11.60;9.50;;;;;;;30.41;36.21;100210.60;109021;278;39463;-79
2023/09/12 12:38:03;;;;;;;13.60;9.50;;;;;;;30.40;36.54;100209.17;108928;278;40230;-78
2023/09/12 12:40:47;;;;;;;10.20;9.30;;;;;;;30.39;36.69;100211.45;108986;278;38199;-76
2023/09/12 12:43:24;;;;;;;11.30;9.60;;;;;;;30.37;36.78;100209.05;108971;278;38159;-77
2023/09/12 12:45:59;;;;;;;10.10;9.20;;;;;;;30.32;36.30;100205.30;108975;278;38481;-78
2023/09/12 12:48:38;;;;;;;10.10;9.30;;;;;;;30.28;36.10;100203.63;108841;278;174378;-77
2023/09/12 12:51:26;;;;;;;10.80;9.70;;;;;;;30.25;36.09;100203.02;108930;278;38159;-75
2023/09/12 12:54:11;;;;;;;10.90;9.70;;;;;;;30.23;36.32;100204.21;108899;278;40023;-77
2023/09/12 12:56:46;;;;;;;10.50;9.60;;;;;;;30.20;36.45;100201.52;108885;278;38270;-78
2023/09/12 12:59:20;;;;;;;10.90;9.80;;;;;;;30.18;36.71;100203.65;108941;278;38288;-78
2023/09/12 13:01:57;;;;;;;12.00;10.20;;;;;;;30.13;36.34;100201.55;108798;278;176022;-77
2023/09/12 13:04:40;;;;;;;13.30;10.10;;;;;;;30.05;36.36;100196.90;108896;278;38139;-76
2023/09/12 13:07:18;;;;;;;11.00;10.00;;;;;;;29.98;36.89;100196.11;108928;278;38424;-76
2023/09/12 13:09:54;;;;;;;11.90;10.70;;;;;;;29.93;37.41;100194.40;108959;278;39408;-76
2023/09/12 13:12:33;;;;;;;11.00;9.70;;;;;;;29.87;37.06;100192.68;108961;278;38322;-76
2023/09/12 13:15:12;;;;;;;11.10;9.80;;;;;;;29.81;37.32;100193.41;108967;278;38324;-77
2023/09/12 13:17:47;;;;;;;11.80;10.50;;;;;;;29.78;37.57;100195.02;109021;278;39921;-78
2023/09/12 13:20:22;;;;;;;10.90;9.80;;;;;;;29.73;37.49;100195.05;108973;278;39233;-78
2023/09/12 13:22:59;;;;;;;11.20;10.20;;;;;;;29.68;37.68;100190.98;109007;278;38510;-75
2023/09/12 13:25:36;;;;;;;10.10;9.20;;;;;;;29.65;37.97;100189.58;108941;278;38408;-75
2023/09/12 13:28:12;;;;;;;13.60;10.30;;;;;;;29.63;38.03;100184.27;108977;278;38438;-75
2023/09/12 13:30:51;;;;;;;11.10;10.00;;;;;;;29.58;37.80;100182.60;108909;278;38805;-76
2023/09/12 13:33:26;;;;;;;12.40;10.20;;;;;;;29.51;37.36;100184.26;108864;278;39394;-78
2023/09/12 13:36:08;;;;;;;11.00;10.10;;;;;;;29.43;36.95;100185.21;108885;278;38172;-77
2023/09/12 13:38:51;;;;;;;11.30;10.30;;;;;;;29.34;36.78;100186.45;108883;278;38742;-77
2023/09/12 13:41:30;;;;;;;12.00;11.00;;;;;;;29.26;36.81;100186.54;108883;278;38367;-77
2023/09/12 13:44:22;;;;;;;11.40;10.40;;;;;;;29.19;37.03;100188.84;108943;278;38179;-76
2023/09/12 13:46:57;;;;;;;11.40;10.30;;;;;;;29.15;37.47;100190.80;108922;278;38634;-75
2023/09/12 13:49:33;;;;;;;11.80;10.60;;;;;;;29.06;37.77;100190.33;108940;278;38191;-77
2023/09/12 13:52:11;;;;;;;11.70;10.50;;;;;;;28.96;37.59;100186.20;108932;278;38154;-78
2023/09/12 13:54:46;;;;;;;11.70;10.60;;;;;;;28.83;37.65;100182.16;108949;278;38714;-77
2023/09/12 13:57:23;;;;;;;11.10;10.00;;;;;;;28.71;37.99;100183.73;108917;278;38676;-75
2023/09/12 13:59:58;;;;;;;12.30;10.40;;;;;;;28.62;38.52;100188.05;108819;278;174462;-75
2023/09/12 14:02:35;;;;;;;12.30;11.20;;;;;;;28.52;38.83;100188.49;108963;278;38333;-73
2023/09/12 14:05:12;;;;;;;12.60;11.30;;;;;;;28.42;39.13;100186.43;108951;278;39135;-75
2023/09/12 14:07:56;;;;;;;11.30;10.30;;;;;;;28.31;40.09;100185.54;109021;278;38329;-76
2023/09/12 14:10:40;;;;;;;11.50;10.30;;;;;;;28.21;40.95;100182.54;108993;278;39391;-77
2023/09/12 14:13:18;;;;;;;13.90;11.30;;;;;;;28.12;41.96;100183.89;108930;278;39306;-75
2023/09/12 14:16:01;;;;;;;11.70;10.70;;;;;;;28.02;43.02;100181.90;108898;278;38157;-78
2023/09/12 14:18:44;;;;;;;11.40;10.20;;;;;;;27.90;43.82;100181.65;108941;278;38160;-77